sensor_id;sensor_type;location;lat;lon;timestamp;temperature;humidity
71523;HTU21D;59343;51.102;5.884;2022-07-12T00:00:07;19.27;72.99
71523;HTU21D;59343;51.102;5.884;2022-07-12T00:02:34;19.25;73.11
71523;HTU21D;59343;51.102;5.884;2022-07-12T00:05:00;19.25;73.07
71523;HTU21D;59343;51.102;5.884;2022-07-12T00:07:26;19.22;73.04
71523;HTU21D;59343;51.102;5.884;2022-07-12T00:09:52;19.17;73.02
71523;HTU21D;59343;51.102;5.884;2022-07-12T00:12:18;19.17;73.01
71523;HTU21D;59343;51.102;5.884;2022-07-12T00:14:44;19.16;73.00
71523;HTU21D;59343;51.102;5.884;2022-07-12T00:17:13;19.14;73.04
71523;HTU21D;59343;51.102;5.884;2022-07-12T00:19:39;19.12;72.96
71523;HTU21D;59343;51.102;5.884;2022-07-12T00:22:05;19.10;72.87
71523;HTU21D;59343;51.102;5.884;2022-07-12T00:24:34;19.05;72.89
71523;HTU21D;59343;51.102;5.884;2022-07-12T00:27:00;19.06;72.91
71523;HTU21D;59343;51.102;5.884;2022-07-12T00:29:26;19.05;72.91
71523;HTU21D;59343;51.102;5.884;2022-07-12T00:31:52;19.02;72.95
71523;HTU21D;59343;51.102;5.884;2022-07-12T00:34:18;19.00;72.88
71523;HTU21D;59343;51.102;5.884;2022-07-12T00:36:45;18.96;72.87
71523;HTU21D;59343;51.102;5.884;2022-07-12T00:39:11;18.91;72.99
71523;HTU21D;59343;51.102;5.884;2022-07-12T00:41:40;18.86;73.06
71523;HTU21D;59343;51.102;5.884;2022-07-12T00:44:08;18.85;73.06
71523;HTU21D;59343;51.102;5.884;2022-07-12T00:46:41;18.82;73.10
71523;HTU21D;59343;51.102;5.884;2022-07-12T00:49:08;18.83;73.16
71523;HTU21D;59343;51.102;5.884;2022-07-12T00:51:34;18.77;73.31
71523;HTU21D;59343;51.102;5.884;2022-07-12T00:54:04;18.76;73.43
71523;HTU21D;59343;51.102;5.884;2022-07-12T00:56:33;18.73;73.44
71523;HTU21D;59343;51.102;5.884;2022-07-12T00:58:59;18.70;73.47
71523;HTU21D;59343;51.102;5.884;2022-07-12T01:01:26;18.65;73.64
71523;HTU21D;59343;51.102;5.884;2022-07-12T01:03:52;18.62;73.96
71523;HTU21D;59343;51.102;5.884;2022-07-12T01:06:22;18.61;74.01
71523;HTU21D;59343;51.102;5.884;2022-07-12T01:08:48;18.59;73.96
71523;HTU21D;59343;51.102;5.884;2022-07-12T01:11:17;18.57;73.94
71523;HTU21D;59343;51.102;5.884;2022-07-12T01:13:44;18.55;73.87
71523;HTU21D;59343;51.102;5.884;2022-07-12T01:16:12;18.53;73.95
71523;HTU21D;59343;51.102;5.884;2022-07-12T01:18:40;18.47;74.00
71523;HTU21D;59343;51.102;5.884;2022-07-12T01:21:07;18.41;74.18
71523;HTU21D;59343;51.102;5.884;2022-07-12T01:23:34;18.42;74.08
71523;HTU21D;59343;51.102;5.884;2022-07-12T01:26:03;18.43;74.08
71523;HTU21D;59343;51.102;5.884;2022-07-12T01:28:29;18.42;74.10
71523;HTU21D;59343;51.102;5.884;2022-07-12T01:30:56;18.40;74.18
71523;HTU21D;59343;51.102;5.884;2022-07-12T01:33:22;18.38;74.20
71523;HTU21D;59343;51.102;5.884;2022-07-12T01:35:49;18.37;74.24
71523;HTU21D;59343;51.102;5.884;2022-07-12T01:38:15;18.38;74.22
71523;HTU21D;59343;51.102;5.884;2022-07-12T01:40:42;18.38;74.12
71523;HTU21D;59343;51.102;5.884;2022-07-12T01:43:08;18.39;74.01
71523;HTU21D;59343;51.102;5.884;2022-07-12T01:45:34;18.35;73.80
71523;HTU21D;59343;51.102;5.884;2022-07-12T01:48:06;18.27;73.96
71523;HTU21D;59343;51.102;5.884;2022-07-12T01:50:32;18.20;74.02
71523;HTU21D;59343;51.102;5.884;2022-07-12T01:53:01;18.15;74.46
71523;HTU21D;59343;51.102;5.884;2022-07-12T01:55:31;18.14;74.63
71523;HTU21D;59343;51.102;5.884;2022-07-12T01:58:03;18.14;74.57
71523;HTU21D;59343;51.102;5.884;2022-07-12T02:00:31;18.10;74.39
71523;HTU21D;59343;51.102;5.884;2022-07-12T02:02:56;18.04;74.49
71523;HTU21D;59343;51.102;5.884;2022-07-12T02:05:25;17.98;74.57
71523;HTU21D;59343;51.102;5.884;2022-07-12T02:07:51;17.94;74.80
71523;HTU21D;59343;51.102;5.884;2022-07-12T02:10:19;17.93;74.82
71523;HTU21D;59343;51.102;5.884;2022-07-12T02:12:44;17.91;74.87
71523;HTU21D;59343;51.102;5.884;2022-07-12T02:15:10;17.88;74.99
71523;HTU21D;59343;51.102;5.884;2022-07-12T02:17:37;17.89;74.94
71523;HTU21D;59343;51.102;5.884;2022-07-12T02:20:06;17.90;74.83
71523;HTU21D;59343;51.102;5.884;2022-07-12T02:22:35;17.90;74.70
71523;HTU21D;59343;51.102;5.884;2022-07-12T02:25:01;17.92;74.63
71523;HTU21D;59343;51.102;5.884;2022-07-12T02:27:30;17.93;74.56
71523;HTU21D;59343;51.102;5.884;2022-07-12T02:29:56;17.92;74.57
71523;HTU21D;59343;51.102;5.884;2022-07-12T02:32:22;17.92;74.67
71523;HTU21D;59343;51.102;5.884;2022-07-12T02:34:48;17.89;74.66
71523;HTU21D;59343;51.102;5.884;2022-07-12T02:37:17;17.89;74.56
71523;HTU21D;59343;51.102;5.884;2022-07-12T02:39:43;17.85;74.42
71523;HTU21D;59343;51.102;5.884;2022-07-12T02:42:09;17.83;74.19
71523;HTU21D;59343;51.102;5.884;2022-07-12T02:44:35;17.81;73.82
71523;HTU21D;59343;51.102;5.884;2022-07-12T02:47:01;17.79;73.66
71523;HTU21D;59343;51.102;5.884;2022-07-12T02:49:27;17.76;73.42
71523;HTU21D;59343;51.102;5.884;2022-07-12T02:51:53;17.68;73.54
71523;HTU21D;59343;51.102;5.884;2022-07-12T02:54:20;17.62;73.51
71523;HTU21D;59343;51.102;5.884;2022-07-12T02:56:49;17.59;73.52
71523;HTU21D;59343;51.102;5.884;2022-07-12T02:59:15;17.51;73.63
71523;HTU21D;59343;51.102;5.884;2022-07-12T03:01:41;17.46;73.68
71523;HTU21D;59343;51.102;5.884;2022-07-12T03:04:12;17.44;73.73
71523;HTU21D;59343;51.102;5.884;2022-07-12T03:06:38;17.41;73.76
71523;HTU21D;59343;51.102;5.884;2022-07-12T03:09:08;17.36;73.88
71523;HTU21D;59343;51.102;5.884;2022-07-12T03:11:34;17.34;74.00
71523;HTU21D;59343;51.102;5.884;2022-07-12T03:14:00;17.33;74.06
71523;HTU21D;59343;51.102;5.884;2022-07-12T03:16:26;17.31;74.06
71523;HTU21D;59343;51.102;5.884;2022-07-12T03:18:52;17.32;73.89
71523;HTU21D;59343;51.102;5.884;2022-07-12T03:21:18;17.29;73.83
71523;HTU21D;59343;51.102;5.884;2022-07-12T03:23:47;17.28;73.79
71523;HTU21D;59343;51.102;5.884;2022-07-12T03:26:16;17.24;73.77
71523;HTU21D;59343;51.102;5.884;2022-07-12T03:28:45;17.23;73.86
71523;HTU21D;59343;51.102;5.884;2022-07-12T03:31:11;17.22;73.99
71523;HTU21D;59343;51.102;5.884;2022-07-12T03:33:38;17.20;74.03
71523;HTU21D;59343;51.102;5.884;2022-07-12T03:36:04;17.17;74.12
71523;HTU21D;59343;51.102;5.884;2022-07-12T03:38:32;17.16;74.22
71523;HTU21D;59343;51.102;5.884;2022-07-12T03:40:58;17.17;74.35
71523;HTU21D;59343;51.102;5.884;2022-07-12T03:43:25;17.17;74.36
71523;HTU21D;59343;51.102;5.884;2022-07-12T03:45:52;17.16;74.32
71523;HTU21D;59343;51.102;5.884;2022-07-12T03:48:18;17.15;74.39
71523;HTU21D;59343;51.102;5.884;2022-07-12T03:50:44;17.16;74.28
71523;HTU21D;59343;51.102;5.884;2022-07-12T03:53:11;17.13;74.34
71523;HTU21D;59343;51.102;5.884;2022-07-12T03:55:40;17.13;74.47
71523;HTU21D;59343;51.102;5.884;2022-07-12T03:58:07;17.11;74.45
71523;HTU21D;59343;51.102;5.884;2022-07-12T04:00:33;17.10;74.31
71523;HTU21D;59343;51.102;5.884;2022-07-12T04:02:59;17.10;74.22
71523;HTU21D;59343;51.102;5.884;2022-07-12T04:05:26;17.09;74.08
71523;HTU21D;59343;51.102;5.884;2022-07-12T04:07:53;17.08;74.18
71523;HTU21D;59343;51.102;5.884;2022-07-12T04:10:23;17.09;74.20
71523;HTU21D;59343;51.102;5.884;2022-07-12T04:12:49;17.11;74.10
71523;HTU21D;59343;51.102;5.884;2022-07-12T04:15:18;17.13;74.13
71523;HTU21D;59343;51.102;5.884;2022-07-12T04:17:44;17.14;74.09
71523;HTU21D;59343;51.102;5.884;2022-07-12T04:20:10;17.17;73.99
71523;HTU21D;59343;51.102;5.884;2022-07-12T04:22:36;17.19;73.86
71523;HTU21D;59343;51.102;5.884;2022-07-12T04:25:03;17.19;74.02
71523;HTU21D;59343;51.102;5.884;2022-07-12T04:27:29;17.17;74.35
71523;HTU21D;59343;51.102;5.884;2022-07-12T04:29:55;17.16;74.54
71523;HTU21D;59343;51.102;5.884;2022-07-12T04:32:21;17.20;74.57
71523;HTU21D;59343;51.102;5.884;2022-07-12T04:34:49;17.28;74.51
71523;HTU21D;59343;51.102;5.884;2022-07-12T04:37:15;17.48;74.46
71523;HTU21D;59343;51.102;5.884;2022-07-12T04:39:44;18.10;73.57
71523;HTU21D;59343;51.102;5.884;2022-07-12T04:42:11;19.02;71.51
71523;HTU21D;59343;51.102;5.884;2022-07-12T04:44:37;20.11;68.03
71523;HTU21D;59343;51.102;5.884;2022-07-12T04:47:03;20.62;65.08
71523;HTU21D;59343;51.102;5.884;2022-07-12T04:49:31;20.88;63.89
71523;HTU21D;59343;51.102;5.884;2022-07-12T04:51:58;20.83;63.13
71523;HTU21D;59343;51.102;5.884;2022-07-12T04:54:24;20.46;63.69
71523;HTU21D;59343;51.102;5.884;2022-07-12T04:56:50;20.05;64.93
71523;HTU21D;59343;51.102;5.884;2022-07-12T04:59:15;19.77;66.03
71523;HTU21D;59343;51.102;5.884;2022-07-12T05:01:41;19.55;66.81
71523;HTU21D;59343;51.102;5.884;2022-07-12T05:04:07;19.35;67.91
71523;HTU21D;59343;51.102;5.884;2022-07-12T05:06:33;19.23;68.59
71523;HTU21D;59343;51.102;5.884;2022-07-12T05:08:59;19.12;68.75
71523;HTU21D;59343;51.102;5.884;2022-07-12T05:11:25;19.05;69.08
71523;HTU21D;59343;51.102;5.884;2022-07-12T05:13:50;18.94;69.53
71523;HTU21D;59343;51.102;5.884;2022-07-12T05:16:16;18.98;70.13
71523;HTU21D;59343;51.102;5.884;2022-07-12T05:18:42;19.47;69.65
71523;HTU21D;59343;51.102;5.884;2022-07-12T05:21:08;20.26;68.47
71523;HTU21D;59343;51.102;5.884;2022-07-12T05:23:34;21.47;65.03
71523;HTU21D;59343;51.102;5.884;2022-07-12T05:26:01;22.51;61.05
71523;HTU21D;59343;51.102;5.884;2022-07-12T05:28:27;22.71;59.96
71523;HTU21D;59343;51.102;5.884;2022-07-12T05:30:53;22.48;60.58
71523;HTU21D;59343;51.102;5.884;2022-07-12T05:33:19;22.27;61.49
71523;HTU21D;59343;51.102;5.884;2022-07-12T05:35:45;22.18;62.26
71523;HTU21D;59343;51.102;5.884;2022-07-12T05:38:11;22.13;62.71
71523;HTU21D;59343;51.102;5.884;2022-07-12T05:40:36;21.98;63.69
71523;HTU21D;59343;51.102;5.884;2022-07-12T05:43:02;21.87;63.82
71523;HTU21D;59343;51.102;5.884;2022-07-12T05:45:28;21.76;63.70
71523;HTU21D;59343;51.102;5.884;2022-07-12T05:47:54;21.70;64.09
71523;HTU21D;59343;51.102;5.884;2022-07-12T05:50:20;21.69;64.02
71523;HTU21D;59343;51.102;5.884;2022-07-12T05:52:45;21.72;64.14
71523;HTU21D;59343;51.102;5.884;2022-07-12T05:55:49;21.80;63.85
71523;HTU21D;59343;51.102;5.884;2022-07-12T05:58:20;21.91;63.59
71523;HTU21D;59343;51.102;5.884;2022-07-12T06:00:46;22.09;63.30
71523;HTU21D;59343;51.102;5.884;2022-07-12T06:03:13;22.22;63.00
71523;HTU21D;59343;51.102;5.884;2022-07-12T06:05:40;22.39;62.61
71523;HTU21D;59343;51.102;5.884;2022-07-12T06:08:06;22.43;62.74
71523;HTU21D;59343;51.102;5.884;2022-07-12T06:10:32;22.42;62.86
71523;HTU21D;59343;51.102;5.884;2022-07-12T06:13:00;22.41;63.44
71523;HTU21D;59343;51.102;5.884;2022-07-12T06:15:26;22.43;63.41
71523;HTU21D;59343;51.102;5.884;2022-07-12T06:17:52;22.41;63.49
71523;HTU21D;59343;51.102;5.884;2022-07-12T06:20:17;22.38;63.51
71523;HTU21D;59343;51.102;5.884;2022-07-12T06:22:43;22.38;63.65
71523;HTU21D;59343;51.102;5.884;2022-07-12T06:25:09;22.40;63.94
71523;HTU21D;59343;51.102;5.884;2022-07-12T06:27:35;22.44;63.72
71523;HTU21D;59343;51.102;5.884;2022-07-12T06:30:01;22.44;63.95
71523;HTU21D;59343;51.102;5.884;2022-07-12T06:32:27;22.48;64.24
71523;HTU21D;59343;51.102;5.884;2022-07-12T06:34:52;22.50;64.24
71523;HTU21D;59343;51.102;5.884;2022-07-12T06:37:18;22.51;64.04
71523;HTU21D;59343;51.102;5.884;2022-07-12T06:39:44;22.52;64.33
71523;HTU21D;59343;51.102;5.884;2022-07-12T06:42:12;22.55;64.31
71523;HTU21D;59343;51.102;5.884;2022-07-12T06:44:47;22.65;63.89
71523;HTU21D;59343;51.102;5.884;2022-07-12T06:47:12;22.80;63.83
71523;HTU21D;59343;51.102;5.884;2022-07-12T06:49:38;22.91;63.56
71523;HTU21D;59343;51.102;5.884;2022-07-12T06:52:34;23.03;63.50
71523;HTU21D;59343;51.102;5.884;2022-07-12T06:55:00;23.21;62.98
71523;HTU21D;59343;51.102;5.884;2022-07-12T06:57:26;23.30;62.53
71523;HTU21D;59343;51.102;5.884;2022-07-12T06:59:52;23.39;62.86
71523;HTU21D;59343;51.102;5.884;2022-07-12T07:02:18;23.41;62.96
71523;HTU21D;59343;51.102;5.884;2022-07-12T07:04:44;23.38;62.82
71523;HTU21D;59343;51.102;5.884;2022-07-12T07:07:10;23.39;62.57
71523;HTU21D;59343;51.102;5.884;2022-07-12T07:09:36;23.41;63.01
71523;HTU21D;59343;51.102;5.884;2022-07-12T07:12:01;23.44;63.15
71523;HTU21D;59343;51.102;5.884;2022-07-12T07:14:27;23.51;63.24
71523;HTU21D;59343;51.102;5.884;2022-07-12T07:16:53;23.52;63.11
71523;HTU21D;59343;51.102;5.884;2022-07-12T07:19:20;23.53;63.39
71523;HTU21D;59343;51.102;5.884;2022-07-12T07:21:48;23.53;63.19
71523;HTU21D;59343;51.102;5.884;2022-07-12T07:24:14;23.54;62.91
71523;HTU21D;59343;51.102;5.884;2022-07-12T07:26:40;23.53;62.89
71523;HTU21D;59343;51.102;5.884;2022-07-12T07:29:05;23.52;62.96
71523;HTU21D;59343;51.102;5.884;2022-07-12T07:31:50;23.56;63.02
71523;HTU21D;59343;51.102;5.884;2022-07-12T07:34:16;23.62;62.90
71523;HTU21D;59343;51.102;5.884;2022-07-12T07:36:42;23.70;62.66
71523;HTU21D;59343;51.102;5.884;2022-07-12T07:39:08;23.72;62.67
71523;HTU21D;59343;51.102;5.884;2022-07-12T07:41:34;23.76;62.34
71523;HTU21D;59343;51.102;5.884;2022-07-12T07:44:00;23.79;61.93
71523;HTU21D;59343;51.102;5.884;2022-07-12T07:46:26;23.84;61.54
71523;HTU21D;59343;51.102;5.884;2022-07-12T07:48:51;23.91;61.18
71523;HTU21D;59343;51.102;5.884;2022-07-12T07:51:17;23.98;60.84
71523;HTU21D;59343;51.102;5.884;2022-07-12T07:53:43;24.04;60.57
71523;HTU21D;59343;51.102;5.884;2022-07-12T07:56:09;24.09;60.43
71523;HTU21D;59343;51.102;5.884;2022-07-12T07:58:34;24.09;60.35
71523;HTU21D;59343;51.102;5.884;2022-07-12T08:01:00;24.05;60.35
71523;HTU21D;59343;51.102;5.884;2022-07-12T08:03:26;24.08;60.53
71523;HTU21D;59343;51.102;5.884;2022-07-12T08:05:52;24.10;60.90
71523;HTU21D;59343;51.102;5.884;2022-07-12T08:08:18;24.10;60.09
71523;HTU21D;59343;51.102;5.884;2022-07-12T08:10:44;24.10;60.05
71523;HTU21D;59343;51.102;5.884;2022-07-12T08:13:10;24.08;59.51
71523;HTU21D;59343;51.102;5.884;2022-07-12T08:15:36;24.06;59.29
71523;HTU21D;59343;51.102;5.884;2022-07-12T08:18:02;24.09;59.51
71523;HTU21D;59343;51.102;5.884;2022-07-12T08:20:29;24.12;59.62
71523;HTU21D;59343;51.102;5.884;2022-07-12T08:23:06;24.18;59.30
71523;HTU21D;59343;51.102;5.884;2022-07-12T08:29:12;24.38;59.24
71523;HTU21D;59343;51.102;5.884;2022-07-12T08:31:46;24.47;58.52
71523;HTU21D;59343;51.102;5.884;2022-07-12T08:34:12;24.53;58.17
71523;HTU21D;59343;51.102;5.884;2022-07-12T08:36:38;24.58;58.25
71523;HTU21D;59343;51.102;5.884;2022-07-12T08:39:04;24.66;58.54
71523;HTU21D;59343;51.102;5.884;2022-07-12T08:41:30;24.74;58.04
71523;HTU21D;59343;51.102;5.884;2022-07-12T08:43:56;24.86;57.67
71523;HTU21D;59343;51.102;5.884;2022-07-12T08:46:23;24.95;56.63
71523;HTU21D;59343;51.102;5.884;2022-07-12T08:48:49;24.94;55.85
71523;HTU21D;59343;51.102;5.884;2022-07-12T08:51:20;24.91;55.05
71523;HTU21D;59343;51.102;5.884;2022-07-12T08:53:46;24.88;54.88
71523;HTU21D;59343;51.102;5.884;2022-07-12T08:56:42;24.91;55.35
71523;HTU21D;59343;51.102;5.884;2022-07-12T08:59:26;25.01;55.32
71523;HTU21D;59343;51.102;5.884;2022-07-12T09:01:54;25.09;54.97
71523;HTU21D;59343;51.102;5.884;2022-07-12T09:04:22;25.15;54.21
71523;HTU21D;59343;51.102;5.884;2022-07-12T09:06:48;25.17;54.17
71523;HTU21D;59343;51.102;5.884;2022-07-12T09:11:53;25.32;54.05
71523;HTU21D;59343;51.102;5.884;2022-07-12T09:14:19;25.31;53.76
71523;HTU21D;59343;51.102;5.884;2022-07-12T09:17:06;25.31;53.88
71523;HTU21D;59343;51.102;5.884;2022-07-12T09:19:39;25.31;54.25
71523;HTU21D;59343;51.102;5.884;2022-07-12T09:22:14;25.34;54.09
71523;HTU21D;59343;51.102;5.884;2022-07-12T09:24:43;25.37;53.94
71523;HTU21D;59343;51.102;5.884;2022-07-12T09:27:12;25.42;53.84
71523;HTU21D;59343;51.102;5.884;2022-07-12T09:29:49;25.51;53.94
71523;HTU21D;59343;51.102;5.884;2022-07-12T09:32:16;25.56;53.71
71523;HTU21D;59343;51.102;5.884;2022-07-12T09:35:00;25.60;53.81
71523;HTU21D;59343;51.102;5.884;2022-07-12T09:37:45;25.66;53.39
71523;HTU21D;59343;51.102;5.884;2022-07-12T09:40:12;25.72;53.22
71523;HTU21D;59343;51.102;5.884;2022-07-12T09:42:40;25.73;52.40
71523;HTU21D;59343;51.102;5.884;2022-07-12T09:45:10;25.76;52.38
71523;HTU21D;59343;51.102;5.884;2022-07-12T09:47:37;25.81;52.53
71523;HTU21D;59343;51.102;5.884;2022-07-12T09:50:04;25.86;52.63
71523;HTU21D;59343;51.102;5.884;2022-07-12T09:52:32;25.90;52.38
71523;HTU21D;59343;51.102;5.884;2022-07-12T09:55:02;25.93;52.13
71523;HTU21D;59343;51.102;5.884;2022-07-12T09:57:33;25.94;52.15
71523;HTU21D;59343;51.102;5.884;2022-07-12T10:00:01;26.02;52.59
71523;HTU21D;59343;51.102;5.884;2022-07-12T10:02:37;26.08;52.14
71523;HTU21D;59343;51.102;5.884;2022-07-12T10:05:30;26.09;51.50
71523;HTU21D;59343;51.102;5.884;2022-07-12T10:07:56;26.11;51.56
71523;HTU21D;59343;51.102;5.884;2022-07-12T10:10:24;26.05;50.98
71523;HTU21D;59343;51.102;5.884;2022-07-12T10:12:52;26.08;51.24
71523;HTU21D;59343;51.102;5.884;2022-07-12T10:15:20;26.13;51.33
71523;HTU21D;59343;51.102;5.884;2022-07-12T10:17:53;26.17;50.74
71523;HTU21D;59343;51.102;5.884;2022-07-12T10:20:26;26.20;50.65
71523;HTU21D;59343;51.102;5.884;2022-07-12T10:23:27;26.25;50.59
71523;HTU21D;59343;51.102;5.884;2022-07-12T10:25:42;26.31;50.54
71523;HTU21D;59343;51.102;5.884;2022-07-12T10:28:16;26.33;50.14
71523;HTU21D;59343;51.102;5.884;2022-07-12T10:30:47;26.34;49.92
71523;HTU21D;59343;51.102;5.884;2022-07-12T10:33:23;26.33;49.79
71523;HTU21D;59343;51.102;5.884;2022-07-12T10:35:59;26.37;49.71
71523;HTU21D;59343;51.102;5.884;2022-07-12T10:38:26;26.38;49.34
71523;HTU21D;59343;51.102;5.884;2022-07-12T10:40:53;26.39;49.24
71523;HTU21D;59343;51.102;5.884;2022-07-12T10:43:27;26.45;49.45
71523;HTU21D;59343;51.102;5.884;2022-07-12T10:46:21;26.53;48.16
71523;HTU21D;59343;51.102;5.884;2022-07-12T10:48:47;26.56;47.92
71523;HTU21D;59343;51.102;5.884;2022-07-12T10:51:18;26.57;47.81
71523;HTU21D;59343;51.102;5.884;2022-07-12T10:53:48;26.53;47.86
71523;HTU21D;59343;51.102;5.884;2022-07-12T10:56:23;26.60;48.24
71523;HTU21D;59343;51.102;5.884;2022-07-12T10:58:55;26.70;47.97
71523;HTU21D;59343;51.102;5.884;2022-07-12T11:01:28;26.81;47.70
71523;HTU21D;59343;51.102;5.884;2022-07-12T11:06:35;27.02;46.47
71523;HTU21D;59343;51.102;5.884;2022-07-12T11:09:03;27.09;45.99
71523;HTU21D;59343;51.102;5.884;2022-07-12T11:11:31;27.17;45.64
71523;HTU21D;59343;51.102;5.884;2022-07-12T11:13:59;27.26;45.86
71523;HTU21D;59343;51.102;5.884;2022-07-12T11:16:28;27.37;45.87
71523;HTU21D;59343;51.102;5.884;2022-07-12T11:18:55;27.41;45.44
71523;HTU21D;59343;51.102;5.884;2022-07-12T11:21:22;27.47;45.06
71523;HTU21D;59343;51.102;5.884;2022-07-12T11:23:48;27.50;45.06
71523;HTU21D;59343;51.102;5.884;2022-07-12T11:26:15;27.59;45.44
71523;HTU21D;59343;51.102;5.884;2022-07-12T11:28:42;27.68;44.64
71523;HTU21D;59343;51.102;5.884;2022-07-12T11:31:14;27.75;43.83
71523;HTU21D;59343;51.102;5.884;2022-07-12T11:33:43;27.86;43.48
71523;HTU21D;59343;51.102;5.884;2022-07-12T11:36:11;27.86;42.69
71523;HTU21D;59343;51.102;5.884;2022-07-12T11:38:40;27.85;42.42
71523;HTU21D;59343;51.102;5.884;2022-07-12T11:41:08;27.87;42.65
71523;HTU21D;59343;51.102;5.884;2022-07-12T11:43:36;27.93;42.72
71523;HTU21D;59343;51.102;5.884;2022-07-12T11:46:06;27.99;42.73
71523;HTU21D;59343;51.102;5.884;2022-07-12T11:48:33;28.10;42.42
71523;HTU21D;59343;51.102;5.884;2022-07-12T11:51:04;28.19;41.94
71523;HTU21D;59343;51.102;5.884;2022-07-12T11:53:32;28.31;41.79
71523;HTU21D;59343;51.102;5.884;2022-07-12T11:56:00;28.35;41.39
71523;HTU21D;59343;51.102;5.884;2022-07-12T11:58:28;28.42;41.63
71523;HTU21D;59343;51.102;5.884;2022-07-12T12:00:55;28.47;41.55
71523;HTU21D;59343;51.102;5.884;2022-07-12T12:03:23;28.57;41.61
71523;HTU21D;59343;51.102;5.884;2022-07-12T12:05:51;28.64;41.45
71523;HTU21D;59343;51.102;5.884;2022-07-12T12:08:18;28.72;41.84
71523;HTU21D;59343;51.102;5.884;2022-07-12T12:10:58;28.76;41.86
71523;HTU21D;59343;51.102;5.884;2022-07-12T12:13:26;28.78;41.49
71523;HTU21D;59343;51.102;5.884;2022-07-12T12:15:54;28.79;41.58
71523;HTU21D;59343;51.102;5.884;2022-07-12T12:18:37;28.83;41.04
71523;HTU21D;59343;51.102;5.884;2022-07-12T12:21:09;28.85;40.94
71523;HTU21D;59343;51.102;5.884;2022-07-12T12:23:37;28.91;41.35
71523;HTU21D;59343;51.102;5.884;2022-07-12T12:26:20;29.02;41.12
71523;HTU21D;59343;51.102;5.884;2022-07-12T12:28:53;29.07;40.84
71523;HTU21D;59343;51.102;5.884;2022-07-12T12:31:56;29.07;40.55
71523;HTU21D;59343;51.102;5.884;2022-07-12T12:34:32;29.06;40.88
71523;HTU21D;59343;51.102;5.884;2022-07-12T12:37:18;29.14;40.92
71523;HTU21D;59343;51.102;5.884;2022-07-12T12:39:49;29.22;40.96
71523;HTU21D;59343;51.102;5.884;2022-07-12T12:42:23;29.30;40.44
71523;HTU21D;59343;51.102;5.884;2022-07-12T12:44:53;29.29;40.31
71523;HTU21D;59343;51.102;5.884;2022-07-12T12:47:19;29.33;40.60
71523;HTU21D;59343;51.102;5.884;2022-07-12T12:50:00;29.43;39.72
71523;HTU21D;59343;51.102;5.884;2022-07-12T12:52:28;29.43;39.48
71523;HTU21D;59343;51.102;5.884;2022-07-12T12:55:00;29.50;39.00
71523;HTU21D;59343;51.102;5.884;2022-07-12T12:57:26;29.53;38.52
71523;HTU21D;59343;51.102;5.884;2022-07-12T12:59:55;29.59;38.93
71523;HTU21D;59343;51.102;5.884;2022-07-12T13:02:21;29.64;38.48
71523;HTU21D;59343;51.102;5.884;2022-07-12T13:04:49;29.67;38.45
71523;HTU21D;59343;51.102;5.884;2022-07-12T13:07:16;29.71;38.14
71523;HTU21D;59343;51.102;5.884;2022-07-12T13:09:41;29.71;38.24
71523;HTU21D;59343;51.102;5.884;2022-07-12T13:12:08;29.70;37.97
71523;HTU21D;59343;51.102;5.884;2022-07-12T13:14:34;29.71;37.30
71523;HTU21D;59343;51.102;5.884;2022-07-12T13:17:01;29.68;37.24
71523;HTU21D;59343;51.102;5.884;2022-07-12T13:19:29;29.67;37.31
71523;HTU21D;59343;51.102;5.884;2022-07-12T13:22:07;29.67;37.40
71523;HTU21D;59343;51.102;5.884;2022-07-12T13:24:34;29.75;37.56
71523;HTU21D;59343;51.102;5.884;2022-07-12T13:27:00;29.81;37.40
71523;HTU21D;59343;51.102;5.884;2022-07-12T13:29:26;29.85;37.11
71523;HTU21D;59343;51.102;5.884;2022-07-12T13:31:52;29.86;37.13
71523;HTU21D;59343;51.102;5.884;2022-07-12T13:34:18;29.80;37.20
71523;HTU21D;59343;51.102;5.884;2022-07-12T13:36:44;29.82;37.07
71523;HTU21D;59343;51.102;5.884;2022-07-12T13:39:10;29.86;37.01
71523;HTU21D;59343;51.102;5.884;2022-07-12T13:41:54;29.91;36.67
71523;HTU21D;59343;51.102;5.884;2022-07-12T13:44:20;29.98;35.93
71523;HTU21D;59343;51.102;5.884;2022-07-12T13:46:46;30.09;35.95
71523;HTU21D;59343;51.102;5.884;2022-07-12T13:49:12;30.18;35.85
71523;HTU21D;59343;51.102;5.884;2022-07-12T13:51:38;30.26;35.92
71523;HTU21D;59343;51.102;5.884;2022-07-12T13:54:04;30.35;35.78
71523;HTU21D;59343;51.102;5.884;2022-07-12T13:56:33;30.36;35.63
71523;HTU21D;59343;51.102;5.884;2022-07-12T13:59:03;30.35;35.83
71523;HTU21D;59343;51.102;5.884;2022-07-12T14:01:38;30.28;35.98
71523;HTU21D;59343;51.102;5.884;2022-07-12T14:04:04;30.30;36.67
71523;HTU21D;59343;51.102;5.884;2022-07-12T14:06:30;30.34;36.79
71523;HTU21D;59343;51.102;5.884;2022-07-12T14:08:56;30.38;35.86
71523;HTU21D;59343;51.102;5.884;2022-07-12T14:11:25;30.48;36.29
71523;HTU21D;59343;51.102;5.884;2022-07-12T14:13:58;30.57;35.98
71523;HTU21D;59343;51.102;5.884;2022-07-12T14:16:42;30.64;35.96
71523;HTU21D;59343;51.102;5.884;2022-07-12T14:19:08;30.68;35.56
71523;HTU21D;59343;51.102;5.884;2022-07-12T14:21:34;30.76;35.82
71523;HTU21D;59343;51.102;5.884;2022-07-12T14:24:00;30.81;35.26
71523;HTU21D;59343;51.102;5.884;2022-07-12T14:26:29;30.83;34.81
71523;HTU21D;59343;51.102;5.884;2022-07-12T14:28:54;30.86;34.71
71523;HTU21D;59343;51.102;5.884;2022-07-12T14:31:20;30.87;34.58
71523;HTU21D;59343;51.102;5.884;2022-07-12T14:33:46;30.87;34.17
71523;HTU21D;59343;51.102;5.884;2022-07-12T14:36:12;30.85;34.31
71523;HTU21D;59343;51.102;5.884;2022-07-12T14:38:38;30.80;33.96
71523;HTU21D;59343;51.102;5.884;2022-07-12T14:41:04;30.83;34.37
71523;HTU21D;59343;51.102;5.884;2022-07-12T14:43:30;30.91;34.07
71523;HTU21D;59343;51.102;5.884;2022-07-12T14:45:56;30.98;33.49
71523;HTU21D;59343;51.102;5.884;2022-07-12T14:48:21;31.02;33.44
71523;HTU21D;59343;51.102;5.884;2022-07-12T14:50:47;31.05;32.67
71523;HTU21D;59343;51.102;5.884;2022-07-12T14:53:13;30.99;32.67
71523;HTU21D;59343;51.102;5.884;2022-07-12T14:55:39;30.98;33.04
71523;HTU21D;59343;51.102;5.884;2022-07-12T14:58:06;31.00;33.15
71523;HTU21D;59343;51.102;5.884;2022-07-12T15:00:38;31.06;33.12
71523;HTU21D;59343;51.102;5.884;2022-07-12T15:03:04;31.18;33.14
71523;HTU21D;59343;51.102;5.884;2022-07-12T15:05:32;31.29;32.84
71523;HTU21D;59343;51.102;5.884;2022-07-12T15:07:58;31.22;32.53
71523;HTU21D;59343;51.102;5.884;2022-07-12T15:10:24;31.12;32.99
71523;HTU21D;59343;51.102;5.884;2022-07-12T15:12:51;31.11;33.31
71523;HTU21D;59343;51.102;5.884;2022-07-12T15:15:17;31.10;33.40
71523;HTU21D;59343;51.102;5.884;2022-07-12T15:17:43;31.10;33.28
71523;HTU21D;59343;51.102;5.884;2022-07-12T15:20:13;31.19;33.02
71523;HTU21D;59343;51.102;5.884;2022-07-12T15:22:39;31.33;32.60
71523;HTU21D;59343;51.102;5.884;2022-07-12T15:25:05;31.36;32.25
71523;HTU21D;59343;51.102;5.884;2022-07-12T15:27:31;31.34;32.33
71523;HTU21D;59343;51.102;5.884;2022-07-12T15:29:57;31.31;32.39